sensor_id;sensor_type;location;lat;lon;timestamp;pressure;altitude;pressure_sealevel;temperature;humidity
21276;BME280;36472;52.170;20.884;2023-11-22T00:01:38;101049.81;;;0.41;72.50
21276;BME280;36472;52.170;20.884;2023-11-22T00:04:07;101050.63;;;0.43;71.92
21276;BME280;36472;52.170;20.884;2023-11-22T00:06:37;101049.88;;;0.33;72.14
21276;BME280;36472;52.170;20.884;2023-11-22T00:09:07;101061.25;;;0.20;72.91
21276;BME280;36472;52.170;20.884;2023-11-22T00:11:37;101057.00;;;0.16;72.83
21276;BME280;36472;52.170;20.884;2023-11-22T00:14:06;101053.50;;;0.18;72.52
21276;BME280;36472;52.170;20.884;2023-11-22T00:16:35;101052.66;;;0.16;71.84
21276;BME280;36472;52.170;20.884;2023-11-22T00:19:07;101066.44;;;0.17;72.22
21276;BME280;36472;52.170;20.884;2023-11-22T00:21:36;101062.97;;;0.21;72.76
21276;BME280;36472;52.170;20.884;2023-11-22T00:24:08;101074.09;;;0.26;72.53
21276;BME280;36472;52.170;20.884;2023-11-22T00:26:37;101074.09;;;0.28;72.71
21276;BME280;36472;52.170;20.884;2023-11-22T00:29:06;101076.75;;;0.18;72.01
21276;BME280;36472;52.170;20.884;2023-11-22T00:31:36;101080.25;;;0.16;71.09
21276;BME280;36472;52.170;20.884;2023-11-22T00:34:05;101078.53;;;0.13;70.18
21276;BME280;36472;52.170;20.884;2023-11-22T00:36:34;101068.28;;;0.07;72.15
21276;BME280;36472;52.170;20.884;2023-11-22T00:39:03;101090.63;;;0.14;72.64
21276;BME280;36472;52.170;20.884;2023-11-22T00:41:34;101081.16;;;0.12;72.22
21276;BME280;36472;52.170;20.884;2023-11-22T00:44:04;101077.72;;;0.10;72.36
21276;BME280;36472;52.170;20.884;2023-11-22T00:46:33;101091.44;;;0.18;71.92
21276;BME280;36472;52.170;20.884;2023-11-22T00:49:03;101083.72;;;0.13;71.93
21276;BME280;36472;52.170;20.884;2023-11-22T00:51:34;101088.78;;;0.24;71.93
21276;BME280;36472;52.170;20.884;2023-11-22T00:54:03;101092.41;;;0.08;71.35
21276;BME280;36472;52.170;20.884;2023-11-22T00:56:34;101091.44;;;0.16;71.48
21276;BME280;36472;52.170;20.884;2023-11-22T00:59:19;101088.91;;;0.12;70.63
21276;BME280;36472;52.170;20.884;2023-11-22T01:01:48;101099.28;;;0.10;71.42
21276;BME280;36472;52.170;20.884;2023-11-22T01:04:17;101095.72;;;0.21;71.09
21276;BME280;36472;52.170;20.884;2023-11-22T01:06:46;101097.47;;;0.17;72.16
21276;BME280;36472;52.170;20.884;2023-11-22T01:09:15;101102.63;;;0.18;71.42
21276;BME280;36472;52.170;20.884;2023-11-22T01:11:45;101111.16;;;0.25;71.24
21276;BME280;36472;52.170;20.884;2023-11-22T01:14:15;101102.78;;;0.05;69.81
21276;BME280;36472;52.170;20.884;2023-11-22T01:16:44;101105.34;;;0.05;70.58
21276;BME280;36472;52.170;20.884;2023-11-22T01:19:13;101117.34;;;0.12;71.10
21276;BME280;36472;52.170;20.884;2023-11-22T01:21:42;101108.72;;;0.11;69.68
21276;BME280;36472;52.170;20.884;2023-11-22T01:24:11;101109.69;;;0.04;69.89
21276;BME280;36472;52.170;20.884;2023-11-22T01:26:40;101111.44;;;0.02;69.03
21276;BME280;36472;52.170;20.884;2023-11-22T01:29:11;101114.91;;;-0.04;70.11
21276;BME280;36472;52.170;20.884;2023-11-22T01:31:40;101117.59;;;-0.11;70.00
21276;BME280;36472;52.170;20.884;2023-11-22T01:34:11;101116.69;;;-0.10;69.98
21276;BME280;36472;52.170;20.884;2023-11-22T01:36:42;101115.97;;;-0.22;69.68
21276;BME280;36472;52.170;20.884;2023-11-22T01:39:12;101127.03;;;-0.10;70.22
21276;BME280;36472;52.170;20.884;2023-11-22T01:41:44;101119.34;;;-0.16;70.92
21276;BME280;36472;52.170;20.884;2023-11-22T01:44:15;101128.84;;;-0.17;70.00
21276;BME280;36472;52.170;20.884;2023-11-22T01:46:46;101134.00;;;-0.17;70.10
21276;BME280;36472;52.170;20.884;2023-11-22T01:49:17;101138.41;;;-0.27;69.12
21276;BME280;36472;52.170;20.884;2023-11-22T01:51:46;101144.50;;;-0.35;69.13
21276;BME280;36472;52.170;20.884;2023-11-22T01:54:18;101148.75;;;-0.28;69.55
21276;BME280;36472;52.170;20.884;2023-11-22T01:56:49;101141.94;;;-0.37;69.45
21276;BME280;36472;52.170;20.884;2023-11-22T01:59:21;101137.59;;;-0.33;69.67
21276;BME280;36472;52.170;20.884;2023-11-22T02:01:50;101149.59;;;-0.28;70.24
21276;BME280;36472;52.170;20.884;2023-11-22T02:04:19;101152.06;;;-0.15;69.73
21276;BME280;36472;52.170;20.884;2023-11-22T02:06:49;101142.53;;;-0.09;70.67
21276;BME280;36472;52.170;20.884;2023-11-22T02:09:19;101146.81;;;-0.06;68.06
21276;BME280;36472;52.170;20.884;2023-11-22T02:11:49;101144.25;;;-0.06;68.63
21276;BME280;36472;52.170;20.884;2023-11-22T02:14:20;101157.16;;;-0.06;68.81
21276;BME280;36472;52.170;20.884;2023-11-22T02:16:49;101156.38;;;-0.14;68.77
21276;BME280;36472;52.170;20.884;2023-11-22T02:19:18;101159.78;;;-0.11;68.36
21276;BME280;36472;52.170;20.884;2023-11-22T02:21:47;101164.09;;;-0.13;67.99
21276;BME280;36472;52.170;20.884;2023-11-22T02:24:18;101162.28;;;-0.02;68.01
21276;BME280;36472;52.170;20.884;2023-11-22T02:26:47;101160.59;;;-0.07;66.85
21276;BME280;36472;52.170;20.884;2023-11-22T02:29:16;101162.25;;;0.02;67.70
21276;BME280;36472;52.170;20.884;2023-11-22T02:31:45;101156.25;;;-0.02;66.81
21276;BME280;36472;52.170;20.884;2023-11-22T02:34:15;101159.78;;;-0.11;66.00
21276;BME280;36472;52.170;20.884;2023-11-22T02:36:44;101163.16;;;-0.04;66.21
21276;BME280;36472;52.170;20.884;2023-11-22T02:39:37;101166.56;;;0.03;66.74
21276;BME280;36472;52.170;20.884;2023-11-22T02:42:10;101170.84;;;0.05;66.59
21276;BME280;36472;52.170;20.884;2023-11-22T02:44:40;101178.63;;;0.04;67.25
21276;BME280;36472;52.170;20.884;2023-11-22T02:47:09;101176.91;;;-0.02;67.07
21276;BME280;36472;52.170;20.884;2023-11-22T02:49:38;101182.91;;;0.02;66.30
21276;BME280;36472;52.170;20.884;2023-11-22T02:52:07;101177.78;;;0.00;66.50
21276;BME280;36472;52.170;20.884;2023-11-22T02:54:42;101182.88;;;0.08;67.20
21276;BME280;36472;52.170;20.884;2023-11-22T02:57:11;101184.69;;;-0.04;65.76
21276;BME280;36472;52.170;20.884;2023-11-22T02:59:41;101188.13;;;-0.02;66.11
21276;BME280;36472;52.170;20.884;2023-11-22T03:02:10;101197.66;;;-0.07;65.94
21276;BME280;36472;52.170;20.884;2023-11-22T03:04:40;101189.00;;;-0.04;66.25
21276;BME280;36472;52.170;20.884;2023-11-22T03:07:09;101195.16;;;-0.19;65.67
21276;BME280;36472;52.170;20.884;2023-11-22T03:09:39;101202.81;;;-0.07;65.45
21276;BME280;36472;52.170;20.884;2023-11-22T03:12:08;101204.53;;;-0.09;65.61
21276;BME280;36472;52.170;20.884;2023-11-22T03:14:38;101219.22;;;-0.14;65.43
21276;BME280;36472;52.170;20.884;2023-11-22T03:17:09;101219.31;;;-0.23;65.55
21276;BME280;36472;52.170;20.884;2023-11-22T03:19:38;101215.06;;;-0.30;65.54
21276;BME280;36472;52.170;20.884;2023-11-22T03:22:07;101225.41;;;-0.30;66.77
21276;BME280;36472;52.170;20.884;2023-11-22T03:24:36;101222.00;;;-0.39;66.85
21276;BME280;36472;52.170;20.884;2023-11-22T03:27:07;101231.50;;;-0.41;66.16
21276;BME280;36472;52.170;20.884;2023-11-22T03:29:38;101229.78;;;-0.46;66.85
21276;BME280;36472;52.170;20.884;2023-11-22T03:32:07;101245.28;;;-0.45;66.87
21276;BME280;36472;52.170;20.884;2023-11-22T03:34:36;101246.19;;;-0.49;66.95
21276;BME280;36472;52.170;20.884;2023-11-22T03:37:05;101249.56;;;-0.42;67.44
21276;BME280;36472;52.170;20.884;2023-11-22T03:39:35;101252.16;;;-0.39;66.41
21276;BME280;36472;52.170;20.884;2023-11-22T03:42:05;101260.78;;;-0.45;66.96
21276;BME280;36472;52.170;20.884;2023-11-22T03:44:35;101259.94;;;-0.48;65.80
21276;BME280;36472;52.170;20.884;2023-11-22T03:47:05;101258.25;;;-0.51;66.40
21276;BME280;36472;52.170;20.884;2023-11-22T03:49:34;101270.25;;;-0.44;66.37
21276;BME280;36472;52.170;20.884;2023-11-22T03:52:04;101270.25;;;-0.48;67.37
21276;BME280;36472;52.170;20.884;2023-11-22T03:54:34;101274.56;;;-0.44;67.11
21276;BME280;36472;52.170;20.884;2023-11-22T03:57:03;101280.59;;;-0.47;66.58
21276;BME280;36472;52.170;20.884;2023-11-22T03:59:36;101287.50;;;-0.52;65.06
21276;BME280;36472;52.170;20.884;2023-11-22T04:02:05;101294.41;;;-0.57;65.84
21276;BME280;36472;52.170;20.884;2023-11-22T04:04:35;101311.63;;;-0.53;66.83
21276;BME280;36472;52.170;20.884;2023-11-22T04:07:07;101315.09;;;-0.60;65.21
21276;BME280;36472;52.170;20.884;2023-11-22T04:09:36;101327.19;;;-0.71;64.19
21276;BME280;36472;52.170;20.884;2023-11-22T04:12:06;101327.22;;;-0.84;64.38
21276;BME280;36472;52.170;20.884;2023-11-22T04:14:36;101332.38;;;-0.84;65.86
21276;BME280;36472;52.170;20.884;2023-11-22T04:17:05;101328.94;;;-0.84;66.23
21276;BME280;36472;52.170;20.884;2023-11-22T04:19:35;101341.00;;;-0.85;65.06
21276;BME280;36472;52.170;20.884;2023-11-22T04:22:04;101345.31;;;-0.95;65.45
21276;BME280;36472;52.170;20.884;2023-11-22T04:24:33;101342.75;;;-0.99;65.79
21276;BME280;36472;52.170;20.884;2023-11-22T04:27:02;101345.34;;;-1.07;64.83
21276;BME280;36472;52.170;20.884;2023-11-22T04:29:31;101351.38;;;-1.09;65.79
21276;BME280;36472;52.170;20.884;2023-11-22T04:32:02;101361.72;;;-1.16;64.85
21276;BME280;36472;52.170;20.884;2023-11-22T04:34:31;101362.59;;;-1.46;65.28
21276;BME280;36472;52.170;20.884;2023-11-22T04:37:00;101362.59;;;-1.60;64.81
21276;BME280;36472;52.170;20.884;2023-11-22T04:39:29;101370.34;;;-1.57;65.76
21276;BME280;36472;52.170;20.884;2023-11-22T04:41:58;101367.75;;;-1.57;65.79
21276;BME280;36472;52.170;20.884;2023-11-22T04:44:27;101372.91;;;-1.60;65.54
21276;BME280;36472;52.170;20.884;2023-11-22T04:46:56;101374.63;;;-1.54;65.63
21276;BME280;36472;52.170;20.884;2023-11-22T04:49:28;101380.66;;;-1.54;66.14
21276;BME280;36472;52.170;20.884;2023-11-22T04:51:59;101391.81;;;-1.55;65.82
21276;BME280;36472;52.170;20.884;2023-11-22T04:54:29;101387.50;;;-1.53;65.85
21276;BME280;36472;52.170;20.884;2023-11-22T04:56:59;101391.81;;;-1.59;66.26
21276;BME280;36472;52.170;20.884;2023-11-22T04:59:28;101385.81;;;-1.55;65.98
21276;BME280;36472;52.170;20.884;2023-11-22T05:01:57;101400.41;;;-1.56;66.94
21276;BME280;36472;52.170;20.884;2023-11-22T05:04:28;101405.56;;;-1.54;66.13
21276;BME280;36472;52.170;20.884;2023-11-22T05:06:56;101406.44;;;-1.57;66.92
21276;BME280;36472;52.170;20.884;2023-11-22T05:09:26;101401.25;;;-1.52;66.82
21276;BME280;36472;52.170;20.884;2023-11-22T05:11:55;101409.88;;;-1.50;66.49
21276;BME280;36472;52.170;20.884;2023-11-22T05:14:24;101418.44;;;-1.53;66.65
21276;BME280;36472;52.170;20.884;2023-11-22T05:16:54;101421.91;;;-1.54;65.17
21276;BME280;36472;52.170;20.884;2023-11-22T05:19:24;101423.59;;;-1.53;66.22
21276;BME280;36472;52.170;20.884;2023-11-22T05:21:54;101418.47;;;-1.62;65.72
21276;BME280;36472;52.170;20.884;2023-11-22T05:24:23;101414.16;;;-1.60;65.99
21276;BME280;36472;52.170;20.884;2023-11-22T05:26:52;101421.88;;;-1.66;65.87
21276;BME280;36472;52.170;20.884;2023-11-22T05:29:21;101419.31;;;-1.71;65.62
21276;BME280;36472;52.170;20.884;2023-11-22T05:31:53;101417.56;;;-1.76;66.08
21276;BME280;36472;52.170;20.884;2023-11-22T05:34:22;101421.88;;;-1.75;65.64
21276;BME280;36472;52.170;20.884;2023-11-22T05:36:51;101427.88;;;-1.81;65.79
21276;BME280;36472;52.170;20.884;2023-11-22T05:39:21;101443.34;;;-1.82;65.91
21276;BME280;36472;52.170;20.884;2023-11-22T05:41:52;101444.19;;;-1.83;65.20
21276;BME280;36472;52.170;20.884;2023-11-22T05:44:21;101439.00;;;-1.93;66.38
21276;BME280;36472;52.170;20.884;2023-11-22T05:46:50;101446.72;;;-1.99;65.24
21276;BME280;36472;52.170;20.884;2023-11-22T05:49:19;101456.16;;;-1.98;65.74
21276;BME280;36472;52.170;20.884;2023-11-22T05:51:48;101459.56;;;-2.05;65.30
21276;BME280;36472;52.170;20.884;2023-11-22T05:54:17;101459.53;;;-2.14;65.22
21276;BME280;36472;52.170;20.884;2023-11-22T05:56:47;101470.69;;;-2.17;66.57
21276;BME280;36472;52.170;20.884;2023-11-22T05:59:16;101473.28;;;-2.17;66.54
21276;BME280;36472;52.170;20.884;2023-11-22T06:01:45;101478.41;;;-2.18;66.01
21276;BME280;36472;52.170;20.884;2023-11-22T06:04:14;101483.56;;;-2.15;66.02
21276;BME280;36472;52.170;20.884;2023-11-22T06:06:43;101472.38;;;-2.17;67.08
21276;BME280;36472;52.170;20.884;2023-11-22T06:09:13;101475.00;;;-2.14;68.20
21276;BME280;36472;52.170;20.884;2023-11-22T06:11:42;101481.88;;;-2.07;67.28
21276;BME280;36472;52.170;20.884;2023-11-22T06:14:13;101477.56;;;-2.14;66.29
21276;BME280;36472;52.170;20.884;2023-11-22T06:16:42;101474.09;;;-2.19;66.34
21276;BME280;36472;52.170;20.884;2023-11-22T06:19:11;101483.56;;;-2.18;66.38
21276;BME280;36472;52.170;20.884;2023-11-22T06:21:40;101500.72;;;-2.17;66.88
21276;BME280;36472;52.170;20.884;2023-11-22T06:24:09;101500.75;;;-2.13;66.84
21276;BME280;36472;52.170;20.884;2023-11-22T06:26:43;101501.63;;;-2.11;66.82
21276;BME280;36472;52.170;20.884;2023-11-22T06:29:15;101512.78;;;-2.10;65.92
21276;BME280;36472;52.170;20.884;2023-11-22T06:31:44;101512.78;;;-2.10;65.12
21276;BME280;36472;52.170;20.884;2023-11-22T06:34:13;101513.69;;;-2.07;66.08
21276;BME280;36472;52.170;20.884;2023-11-22T06:36:42;101514.56;;;-2.01;66.74
21276;BME280;36472;52.170;20.884;2023-11-22T06:39:12;101520.56;;;-2.01;66.77
21276;BME280;36472;52.170;20.884;2023-11-22T06:41:42;101527.44;;;-1.97;67.65
21276;BME280;36472;52.170;20.884;2023-11-22T06:44:11;101529.19;;;-1.96;67.09
21276;BME280;36472;52.170;20.884;2023-11-22T06:46:42;101548.06;;;-1.95;66.47
21276;BME280;36472;52.170;20.884;2023-11-22T06:49:11;101548.94;;;-1.93;66.62
21276;BME280;36472;52.170;20.884;2023-11-22T06:51:40;101549.84;;;-1.83;67.34
21276;BME280;36472;52.170;20.884;2023-11-22T06:54:09;101549.00;;;-1.81;66.21
21276;BME280;36472;52.170;20.884;2023-11-22T06:56:38;101552.47;;;-1.77;66.65
21276;BME280;36472;52.170;20.884;2023-11-22T06:59:08;101555.88;;;-1.77;64.62
21276;BME280;36472;52.170;20.884;2023-11-22T07:01:37;101556.75;;;-1.73;66.09
21276;BME280;36472;52.170;20.884;2023-11-22T07:04:09;101568.81;;;-1.64;66.35
21276;BME280;36472;52.170;20.884;2023-11-22T07:06:38;101556.81;;;-1.59;66.03
21276;BME280;36472;52.170;20.884;2023-11-22T07:09:07;101554.25;;;-1.53;65.10
21276;BME280;36472;52.170;20.884;2023-11-22T07:11:38;101549.94;;;-1.54;65.74
21276;BME280;36472;52.170;20.884;2023-11-22T07:14:07;101568.88;;;-1.46;65.87
21276;BME280;36472;52.170;20.884;2023-11-22T07:16:36;101576.63;;;-1.37;65.09
21276;BME280;36472;52.170;20.884;2023-11-22T07:19:05;101574.94;;;-1.28;65.08
21276;BME280;36472;52.170;20.884;2023-11-22T07:21:35;101587.88;;;-1.19;64.83
21276;BME280;36472;52.170;20.884;2023-11-22T07:24:06;101593.03;;;-1.15;65.09
21276;BME280;36472;52.170;20.884;2023-11-22T07:26:36;101580.16;;;-1.11;63.65
21276;BME280;36472;52.170;20.884;2023-11-22T07:29:06;101585.34;;;-1.01;64.32
21276;BME280;36472;52.170;20.884;2023-11-22T07:31:35;101590.50;;;-0.93;62.69
21276;BME280;36472;52.170;20.884;2023-11-22T07:34:04;101595.69;;;-0.87;62.94
21276;BME280;36472;52.170;20.884;2023-11-22T07:36:35;101591.38;;;-0.83;62.60
21276;BME280;36472;52.170;20.884;2023-11-22T07:39:05;101596.53;;;-0.76;62.56
21276;BME280;36472;52.170;20.884;2023-11-22T07:41:34;101587.09;;;-0.78;62.51
21276;BME280;36472;52.170;20.884;2023-11-22T07:44:04;101605.16;;;-0.72;61.90
21276;BME280;36472;52.170;20.884;2023-11-22T07:46:33;101603.44;;;-0.71;61.68
21276;BME280;36472;52.170;20.884;2023-11-22T07:49:05;101599.13;;;-0.69;60.44
21276;BME280;36472;52.170;20.884;2023-11-22T07:51:35;101595.69;;;-0.74;59.43
21276;BME280;36472;52.170;20.884;2023-11-22T07:54:05;101599.13;;;-0.86;58.69
21276;BME280;36472;52.170;20.884;2023-11-22T07:56:34;101594.81;;;-0.57;58.92
21276;BME280;36472;52.170;20.884;2023-11-22T07:59:04;101590.53;;;-0.47;59.67
21276;BME280;36472;52.170;20.884;2023-11-22T08:01:33;101597.44;;;-0.46;59.47
21276;BME280;36472;52.170;20.884;2023-11-22T08:04:02;101592.25;;;-0.50;57.35
21276;BME280;36472;52.170;20.884;2023-11-22T08:06:33;101585.34;;;-0.34;57.05
21276;BME280;36472;52.170;20.884;2023-11-22T08:09:04;101591.38;;;-0.45;57.51
21276;BME280;36472;52.170;20.884;2023-11-22T08:11:36;101595.69;;;-0.31;55.92
21276;BME280;36472;52.170;20.884;2023-11-22T08:14:06;101597.41;;;-0.27;57.14
21276;BME280;36472;52.170;20.884;2023-11-22T08:16:35;101606.88;;;-0.17;57.09
21276;BME280;36472;52.170;20.884;2023-11-22T08:19:06;101605.13;;;-0.21;56.77
21276;BME280;36472;52.170;20.884;2023-11-22T08:21:35;101599.94;;;-0.07;57.30
21276;BME280;36472;52.170;20.884;2023-11-22T08:24:07;101613.72;;;-0.01;55.62
21276;BME280;36472;52.170;20.884;2023-11-22T08:26:36;101618.03;;;0.05;55.79
21276;BME280;36472;52.170;20.884;2023-11-22T08:29:05;101617.16;;;0.14;56.99
21276;BME280;36472;52.170;20.884;2023-11-22T08:31:35;101621.44;;;0.16;57.22
21276;BME280;36472;52.170;20.884;2023-11-22T08:34:04;101628.34;;;0.19;55.84
21276;BME280;36472;52.170;20.884;2023-11-22T08:36:34;101623.13;;;0.36;56.56
21276;BME280;36472;52.170;20.884;2023-11-22T08:39:03;101630.00;;;0.39;54.62
21276;BME280;36472;52.170;20.884;2023-11-22T08:41:34;101631.69;;;0.46;54.85
21276;BME280;36472;52.170;20.884;2023-11-22T08:44:03;101633.44;;;0.42;54.73
21276;BME280;36472;52.170;20.884;2023-11-22T08:46:34;101645.47;;;0.51;55.01
21276;BME280;36472;52.170;20.884;2023-11-22T08:49:03;101643.78;;;0.37;52.96
21276;BME280;36472;52.170;20.884;2023-11-22T08:51:34;101640.38;;;0.17;53.44
21276;BME280;36472;52.170;20.884;2023-11-22T08:54:03;101648.09;;;0.43;54.03
21276;BME280;36472;52.170;20.884;2023-11-22T08:56:33;101646.31;;;0.59;54.59
21276;BME280;36472;52.170;20.884;2023-11-22T08:59:03;101648.88;;;0.59;53.57
21276;BME280;36472;52.170;20.884;2023-11-22T09:01:33;101657.44;;;0.78;53.58
21276;BME280;36472;52.170;20.884;2023-11-22T09:04:02;101672.13;;;0.73;52.05
21276;BME280;36472;52.170;20.884;2023-11-22T09:06:31;101689.38;;;0.71;52.57
21276;BME280;36472;52.170;20.884;2023-11-22T09:09:03;101686.78;;;0.79;52.32
21276;BME280;36472;52.170;20.884;2023-11-22T09:11:32;101670.31;;;0.90;51.62
21276;BME280;36472;52.170;20.884;2023-11-22T09:14:04;101683.28;;;0.89;52.38
21276;BME280;36472;52.170;20.884;2023-11-22T09:16:35;101681.50;;;1.00;52.02
21276;BME280;36472;52.170;20.884;2023-11-22T09:19:05;101667.69;;;1.00;52.06
21276;BME280;36472;52.170;20.884;2023-11-22T09:21:35;101663.34;;;1.05;52.54
21276;BME280;36472;52.170;20.884;2023-11-22T09:24:04;101662.44;;;1.09;51.61
21276;BME280;36472;52.170;20.884;2023-11-22T09:26:34;101673.63;;;1.19;51.41
21276;BME280;36472;52.170;20.884;2023-11-22T09:29:04;101665.03;;;1.09;50.65
21276;BME280;36472;52.170;20.884;2023-11-22T09:31:35;101668.44;;;1.22;51.77
21276;BME280;36472;52.170;20.884;2023-11-22T09:34:04;101665.94;;;1.00;51.09
21276;BME280;36472;52.170;20.884;2023-11-22T09:36:33;101653.91;;;0.99;50.25
21276;BME280;36472;52.170;20.884;2023-11-22T09:39:02;101639.28;;;0.87;51.31
21276;BME280;36472;52.170;20.884;2023-11-22T09:41:35;101634.88;;;1.00;51.92
21276;BME280;36472;52.170;20.884;2023-11-22T09:44:07;101636.72;;;0.81;51.70
21276;BME280;36472;52.170;20.884;2023-11-22T09:46:39;101634.03;;;0.97;51.13
21276;BME280;36472;52.170;20.884;2023-11-22T09:49:15;101630.56;;;1.02;51.71
21276;BME280;36472;52.170;20.884;2023-11-22T09:51:54;101626.34;;;0.89;51.55
21276;BME280;36472;52.170;20.884;2023-11-22T09:54:26;101615.06;;;0.96;52.30
21276;BME280;36472;52.170;20.884;2023-11-22T09:56:59;101609.81;;;1.07;51.46
21276;BME280;36472;52.170;20.884;2023-11-22T09:59:32;101600.28;;;1.14;51.51
21276;BME280;36472;52.170;20.884;2023-11-22T10:02:01;101607.16;;;1.18;51.57
21276;BME280;36472;52.170;20.884;2023-11-22T10:04:31;101604.63;;;1.10;50.89
21276;BME280;36472;52.170;20.884;2023-11-22T10:07:02;101607.22;;;1.08;51.43
21276;BME280;36472;52.170;20.884;2023-11-22T10:09:31;101608.91;;;1.16;51.34
21276;BME280;36472;52.170;20.884;2023-11-22T10:12:02;101611.56;;;1.06;51.13
21276;BME280;36472;52.170;20.884;2023-11-22T10:14:33;101598.56;;;1.12;51.59
21276;BME280;36472;52.170;20.884;2023-11-22T10:17:02;101604.53;;;1.21;52.69
21276;BME280;36472;52.170;20.884;2023-11-22T10:19:33;101614.84;;;1.32;51.96
21276;BME280;36472;52.170;20.884;2023-11-22T10:22:05;101622.66;;;1.24;51.68
21276;BME280;36472;52.170;20.884;2023-11-22T10:24:35;101625.28;;;1.19;51.61
21276;BME280;36472;52.170;20.884;2023-11-22T10:27:04;101622.66;;;1.25;51.83
21276;BME280;36472;52.170;20.884;2023-11-22T10:29:35;101619.22;;;1.22;52.61
21276;BME280;36472;52.170;20.884;2023-11-22T10:32:05;101614.88;;;1.27;52.45
21276;BME280;36472;52.170;20.884;2023-11-22T10:34:35;101617.50;;;1.21;51.54
21276;BME280;36472;52.170;20.884;2023-11-22T10:37:05;101629.50;;;1.29;51.55
21276;BME280;36472;52.170;20.884;2023-11-22T10:39:34;101625.13;;;1.39;51.81
21276;BME280;36472;52.170;20.884;2023-11-22T10:42:07;101630.28;;;1.47;52.55
21276;BME280;36472;52.170;20.884;2023-11-22T10:44:39;101642.31;;;1.49;51.92
21276;BME280;36472;52.170;20.884;2023-11-22T10:47:09;101633.72;;;1.46;49.81
21276;BME280;36472;52.170;20.884;2023-11-22T10:49:41;101627.63;;;1.48;51.97
21276;BME280;36472;52.170;20.884;2023-11-22T10:52:31;101637.13;;;1.53;51.41
21276;BME280;36472;52.170;20.884;2023-11-22T10:55:21;101638.00;;;1.52;51.15
21276;BME280;36472;52.170;20.884;2023-11-22T10:58:01;101631.91;;;1.57;52.42
21276;BME280;36472;52.170;20.884;2023-11-22T11:00:33;101637.13;;;1.53;50.48
21276;BME280;36472;52.170;20.884;2023-11-22T11:03:08;101633.66;;;1.54;51.72
21276;BME280;36472;52.170;20.884;2023-11-22T11:05:47;101620.69;;;1.55;51.42
21276;BME280;36472;52.170;20.884;2023-11-22T11:08:18;101628.44;;;1.57;50.72
21276;BME280;36472;52.170;20.884;2023-11-22T11:10:49;101617.22;;;1.59;51.63
21276;BME280;36472;52.170;20.884;2023-11-22T11:13:18;101624.06;;;1.65;51.74
21276;BME280;36472;52.170;20.884;2023-11-22T11:15:48;101618.91;;;1.60;51.81
21276;BME280;36472;52.170;20.884;2023-11-22T11:18:18;101626.78;;;1.51;50.80
21276;BME280;36472;52.170;20.884;2023-11-22T11:20:49;101618.09;;;1.55;51.13
21276;BME280;36472;52.170;20.884;2023-11-22T11:23:21;101617.25;;;1.53;51.88
21276;BME280;36472;52.170;20.884;2023-11-22T11:25:55;101618.06;;;1.60;52.10
21276;BME280;36472;52.170;20.884;2023-11-22T11:28:25;101616.38;;;1.57;50.89
21276;BME280;36472;52.170;20.884;2023-11-22T11:30:57;101612.91;;;1.54;50.77
21276;BME280;36472;52.170;20.884;2023-11-22T11:33:32;101613.72;;;1.59;51.63
21276;BME280;36472;52.170;20.884;2023-11-22T11:36:03;101611.13;;;1.62;51.43
21276;BME280;36472;52.170;20.884;2023-11-22T11:38:35;101609.34;;;1.67;51.85
21276;BME280;36472;52.170;20.884;2023-11-22T11:41:10;101619.66;;;1.76;52.17
21276;BME280;36472;52.170;20.884;2023-11-22T11:43:40;101623.94;;;1.77;50.99
21276;BME280;36472;52.170;20.884;2023-11-22T11:46:12;101622.28;;;1.70;49.35
21276;BME280;36472;52.170;20.884;2023-11-22T11:48:44;101621.47;;;1.63;50.99
21276;BME280;36472;52.170;20.884;2023-11-22T11:51:14;101626.66;;;1.62;50.43
21276;BME280;36472;52.170;20.884;2023-11-22T11:53:45;101619.00;;;1.48;50.20
21276;BME280;36472;52.170;20.884;2023-11-22T11:56:15;101615.56;;;1.49;50.24
21276;BME280;36472;52.170;20.884;2023-11-22T11:58:47;101620.78;;;1.41;49.86
21276;BME280;36472;52.170;20.884;2023-11-22T12:01:19;101608.75;;;1.37;50.31
21276;BME280;36472;52.170;20.884;2023-11-22T12:03:49;101604.38;;;1.42;51.47
21276;BME280;36472;52.170;20.884;2023-11-22T12:06:20;101617.28;;;1.48;50.45
21276;BME280;36472;52.170;20.884;2023-11-22T12:08:50;101628.53;;;1.49;51.19
21276;BME280;36472;52.170;20.884;2023-11-22T12:11:19;101621.56;;;1.54;51.02
21276;BME280;36472;52.170;20.884;2023-11-22T12:13:48;101602.66;;;1.41;51.17
21276;BME280;36472;52.170;20.884;2023-11-22T12:16:19;101598.38;;;1.39;51.55
21276;BME280;36472;52.170;20.884;2023-11-22T12:18:49;101610.44;;;1.38;52.16
21276;BME280;36472;52.170;20.884;2023-11-22T12:21:19;101609.56;;;1.45;53.20
21276;BME280;36472;52.170;20.884;2023-11-22T12:23:48;101603.56;;;1.37;52.59
21276;BME280;36472;52.170;20.884;2023-11-22T12:26:20;101623.34;;;1.47;53.42
21276;BME280;36472;52.170;20.884;2023-11-22T12:28:50;101634.66;;;1.39;53.57
21276;BME280;36472;52.170;20.884;2023-11-22T12:31:33;101645.78;;;1.48;52.29
21276;BME280;36472;52.170;20.884;2023-11-22T12:34:04;101644.06;;;1.47;51.89
21276;BME280;36472;52.170;20.884;2023-11-22T12:36:34;101625.09;;;1.44;52.73
21276;BME280;36472;52.170;20.884;2023-11-22T12:39:08;101610.41;;;1.46;52.59
21276;BME280;36472;52.170;20.884;2023-11-22T12:41:44;101603.44;;;1.53;53.12
21276;BME280;36472;52.170;20.884;2023-11-22T12:44:25;101593.91;;;1.55;53.19
21276;BME280;36472;52.170;20.884;2023-11-22T12:47:01;101592.25;;;1.51;53.38
21276;BME280;36472;52.170;20.884;2023-11-22T12:49:43;101585.31;;;1.51;52.14
21276;BME280;36472;52.170;20.884;2023-11-22T12:52:13;101592.25;;;1.51;51.87
21276;BME280;36472;52.170;20.884;2023-11-22T12:54:42;101589.09;;;1.11;52.44
21276;BME280;36472;52.170;20.884;2023-11-22T12:57:15;101594.06;;;1.36;53.64
21276;BME280;36472;52.170;20.884;2023-11-22T12:59:49;101595.78;;;1.37;52.01
21276;BME280;36472;52.170;20.884;2023-11-22T13:02:19;101593.25;;;1.31;51.60